Time;durP1;ratioP1;P1;durP2;ratioP2;P2;SDS_P1;SDS_P2;PMS_P1;PMS_P2;Temp;Humidity;BMP_temperature;BMP_pressure;BME280_temperature;BME280_humidity;BME280_pressure;Samples;Min_cycle;Max_cycle;Signal;HPM_P1;HPM_P2
2023/10/21 00:00:27;;;;;;;11.13;4.37;;;14.10;99.90;;;;;;6187881;28;20250;-62
2023/10/21 00:03:28;;;;;;;9.07;3.20;;;14.10;99.90;;;;;;6201378;28;20251;-62
2023/10/21 00:06:30;;;;;;;7.47;3.63;;;14.10;99.90;;;;;;6191971;28;20220;-62
2023/10/21 00:09:30;;;;;;;9.40;4.10;;;14.00;99.90;;;;;;6194083;28;20198;-62
2023/10/21 00:12:31;;;;;;;13.10;3.83;;;14.00;99.90;;;;;;6203725;28;20198;-62
2023/10/21 00:15:33;;;;;;;9.53;3.80;;;14.00;99.90;;;;;;6197519;28;20280;-62
2023/10/21 00:18:33;;;;;;;9.20;2.90;;;13.90;99.90;;;;;;6221482;28;20186;-62
2023/10/21 00:21:34;;;;;;;5.97;2.70;;;13.90;99.90;;;;;;6197029;28;20197;-63
2023/10/21 00:24:35;;;;;;;9.90;3.77;;;13.90;99.90;;;;;;6189721;28;20274;-62
2023/10/21 00:27:35;;;;;;;9.80;2.70;;;13.80;99.90;;;;;;6211867;28;20249;-62
2023/10/21 00:30:36;;;;;;;9.27;3.13;;;13.70;99.90;;;;;;6195531;28;20187;-62
2023/10/21 00:33:37;;;;;;;6.27;3.00;;;13.60;99.90;;;;;;6244124;28;20200;-62
2023/10/21 00:36:38;;;;;;;5.37;2.63;;;13.60;99.90;;;;;;6212587;28;20271;-62
2023/10/21 00:39:39;;;;;;;8.80;2.97;;;13.60;99.90;;;;;;6209014;28;20190;-62
2023/10/21 00:42:39;;;;;;;8.77;3.60;;;13.50;99.90;;;;;;6206197;28;20180;-62
2023/10/21 00:45:40;;;;;;;7.33;2.73;;;13.50;99.90;;;;;;6196917;28;20202;-62
2023/10/21 00:48:41;;;;;;;8.13;3.20;;;13.50;99.90;;;;;;6187411;28;20197;-62
2023/10/21 00:51:42;;;;;;;9.77;3.50;;;13.50;99.90;;;;;;6232317;28;20193;-63
2023/10/21 00:54:43;;;;;;;5.23;3.07;;;13.50;99.90;;;;;;6204389;28;20207;-62
2023/10/21 00:57:43;;;;;;;7.47;2.93;;;13.50;99.90;;;;;;6189267;28;20189;-62
2023/10/21 01:00:44;;;;;;;8.87;3.13;;;13.40;99.90;;;;;;6215730;28;20277;-62
2023/10/21 01:03:46;;;;;;;6.37;2.73;;;13.30;99.90;;;;;;6241358;28;20273;-62
2023/10/21 01:06:47;;;;;;;4.80;2.70;;;13.30;99.90;;;;;;6207357;28;20198;-62
2023/10/21 01:09:48;;;;;;;9.17;3.43;;;13.30;99.90;;;;;;6206771;28;20241;-62
2023/10/21 01:12:49;;;;;;;5.77;3.23;;;13.20;99.90;;;;;;6192818;28;20193;-62
2023/10/21 01:15:49;;;;;;;7.97;3.33;;;13.10;99.90;;;;;;6188187;28;20197;-62
2023/10/21 01:18:51;;;;;;;8.77;3.60;;;13.10;99.90;;;;;;6213069;28;20198;-63
2023/10/21 01:21:52;;;;;;;9.53;4.83;;;13.10;99.90;;;;;;6200988;28;20221;-62
2023/10/21 01:24:52;;;;;;;9.17;3.77;;;13.00;99.90;;;;;;6194042;28;20233;-62
2023/10/21 01:27:55;;;;;;;8.47;3.57;;;13.00;99.90;;;;;;6196245;28;20285;-62
2023/10/21 01:30:56;;;;;;;6.90;3.80;;;13.00;99.90;;;;;;6203942;28;20199;-62
2023/10/21 01:33:57;;;;;;;9.60;3.87;;;13.00;99.90;;;;;;6201751;28;20218;-62
2023/10/21 01:36:59;;;;;;;10.27;4.27;;;13.00;99.90;;;;;;6193847;28;20185;-62
2023/10/21 01:39:59;;;;;;;11.33;3.93;;;12.90;99.90;;;;;;6199208;28;20199;-62
2023/10/21 01:43:00;;;;;;;6.73;3.20;;;12.90;99.90;;;;;;6199363;28;20205;-61
2023/10/21 01:46:05;;;;;;;9.17;3.30;;;12.90;99.90;;;;;;6200440;28;20187;-62
2023/10/21 01:49:05;;;;;;;11.37;3.50;;;12.80;99.90;;;;;;6217951;28;20273;-62
2023/10/21 01:52:06;;;;;;;10.73;4.10;;;12.80;99.90;;;;;;6199176;28;20195;-62
2023/10/21 01:55:08;;;;;;;7.13;3.47;;;12.70;99.90;;;;;;6187566;28;20215;-62
2023/10/21 01:58:09;;;;;;;9.03;3.20;;;12.70;99.90;;;;;;6193202;28;20204;-63
2023/10/21 02:01:11;;;;;;;7.97;3.53;;;12.70;99.90;;;;;;6190980;28;20190;-63
2023/10/21 02:04:12;;;;;;;9.37;3.40;;;12.70;99.90;;;;;;6221595;28;20193;-62
2023/10/21 02:07:12;;;;;;;8.97;3.70;;;12.60;99.90;;;;;;6191275;28;20186;-62
2023/10/21 02:10:13;;;;;;;9.30;3.50;;;12.60;99.90;;;;;;6193559;28;20194;-62
2023/10/21 02:13:14;;;;;;;7.77;3.57;;;12.50;99.90;;;;;;6213964;28;20218;-62
2023/10/21 02:16:14;;;;;;;6.90;3.20;;;12.50;99.90;;;;;;6192382;28;20185;-63
2023/10/21 02:19:15;;;;;;;11.23;3.70;;;12.60;99.90;;;;;;6189061;28;20258;-63
2023/10/21 02:22:16;;;;;;;7.63;3.73;;;12.60;99.90;;;;;;6183579;28;20333;-63
2023/10/21 02:25:17;;;;;;;8.43;4.07;;;12.60;99.90;;;;;;6192281;28;20265;-63
2023/10/21 02:28:17;;;;;;;6.47;3.83;;;12.60;99.90;;;;;;6194892;28;20244;-63
2023/10/21 02:31:18;;;;;;;7.57;3.70;;;12.70;99.90;;;;;;6208362;28;20184;-62
2023/10/21 02:34:19;;;;;;;5.90;3.97;;;12.70;99.90;;;;;;6217149;28;20219;-62
2023/10/21 02:37:19;;;;;;;10.00;4.10;;;12.70;99.90;;;;;;6203734;28;20223;-62
2023/10/21 02:40:20;;;;;;;8.47;4.20;;;12.70;99.90;;;;;;6191863;28;20199;-62
2023/10/21 02:43:21;;;;;;;9.43;3.97;;;12.70;99.90;;;;;;6194881;28;20283;-62
2023/10/21 02:46:22;;;;;;;7.13;3.60;;;12.70;99.90;;;;;;6203824;28;20215;-62
2023/10/21 02:49:22;;;;;;;8.00;3.83;;;12.70;99.90;;;;;;6209989;28;20206;-62
2023/10/21 02:52:23;;;;;;;7.17;3.87;;;24.00;50.00;;;;;;6206958;28;20331;-63
2023/10/21 02:55:27;;;;;;;7.97;4.07;;;12.80;99.90;;;;;;6207782;28;20218;-63
2023/10/21 02:58:28;;;;;;;9.90;3.90;;;12.80;99.90;;;;;;6214499;28;20192;-62
2023/10/21 03:01:28;;;;;;;12.23;4.37;;;12.80;99.90;;;;;;6214158;28;20198;-62
2023/10/21 03:04:29;;;;;;;9.43;3.20;;;12.70;99.90;;;;;;6186949;28;20202;-62
2023/10/21 03:07:30;;;;;;;12.80;3.40;;;12.70;99.90;;;;;;6213269;28;20273;-62
2023/10/21 03:10:30;;;;;;;10.43;4.03;;;12.60;99.90;;;;;;6206417;28;20211;-63
2023/10/21 03:13:32;;;;;;;7.57;3.40;;;12.50;99.90;;;;;;6220697;28;20206;-62
2023/10/21 03:16:34;;;;;;;7.43;3.23;;;12.50;99.90;;;;;;6215424;28;20191;-62
2023/10/21 03:19:34;;;;;;;6.20;4.13;;;12.50;99.90;;;;;;6213521;28;20270;-60
2023/10/21 03:22:36;;;;;;;7.20;3.67;;;12.50;99.90;;;;;;6193389;28;20212;-61
2023/10/21 03:25:36;;;;;;;8.87;3.80;;;12.50;99.90;;;;;;6207649;28;20243;-60
2023/10/21 03:28:39;;;;;;;8.90;3.57;;;12.50;99.90;;;;;;6195093;28;20226;-60
2023/10/21 03:31:39;;;;;;;7.97;3.30;;;12.50;99.90;;;;;;6191217;28;20188;-61
2023/10/21 03:34:40;;;;;;;8.17;3.93;;;12.50;99.90;;;;;;6187506;28;20239;-61
2023/10/21 03:37:41;;;;;;;7.60;3.37;;;12.40;99.90;;;;;;6186935;28;20279;-61
2023/10/21 03:40:41;;;;;;;6.50;3.50;;;12.50;99.90;;;;;;6192080;28;20195;-62
2023/10/21 03:43:42;;;;;;;9.53;4.27;;;12.50;99.90;;;;;;6201486;28;20222;-62
2023/10/21 03:46:43;;;;;;;6.60;3.50;;;12.30;99.90;;;;;;6194475;28;20187;-61
2023/10/21 03:49:44;;;;;;;11.33;4.60;;;;;;;;;;6205359;28;20200;-61
2023/10/21 03:52:45;;;;;;;6.63;3.10;;;;;;;;;;6198842;28;20199;-62
2023/10/21 03:55:46;;;;;;;6.13;3.33;;;;;;;;;;6203039;28;20286;-62
2023/10/21 03:58:47;;;;;;;6.83;3.40;;;;;;;;;;6226896;28;20190;-61
2023/10/21 04:01:48;;;;;;;7.13;3.93;;;;;;;;;;6202799;28;20198;-62
2023/10/21 04:04:49;;;;;;;8.10;3.53;;;;;;;;;;6202280;28;20203;-63
2023/10/21 04:07:50;;;;;;;5.63;3.63;;;;;;;;;;6205249;28;20198;-61
2023/10/21 04:10:54;;;;;;;6.90;4.07;;;;;;;;;;6213005;28;20198;-61
2023/10/21 04:13:55;;;;;;;6.87;3.60;;;;;;;;;;6197402;28;20214;-61
2023/10/21 04:16:57;;;;;;;8.73;4.33;;;;;;;;;;6203320;28;20193;-61
2023/10/21 04:19:58;;;;;;;8.03;3.20;;;;;;;;;;6202099;28;20198;-61
2023/10/21 04:22:59;;;;;;;7.10;3.90;;;;;;;;;;6207628;28;20191;-63
2023/10/21 04:26:00;;;;;;;7.63;3.60;;;;;;;;;;6212971;28;20234;-62
2023/10/21 04:29:01;;;;;;;8.50;4.47;;;;;;;;;;6213335;28;20202;-61
2023/10/21 04:32:02;;;;;;;6.30;3.50;;;;;;;;;;6210908;28;20292;-62
2023/10/21 04:35:06;;;;;;;7.20;3.33;;;;;;;;;;6199403;28;20284;-62
2023/10/21 04:38:09;;;;;;;8.67;3.53;;;12.30;99.90;;;;;;6201631;28;20331;-61
2023/10/21 04:41:10;;;;;;;4.43;2.93;;;12.10;99.90;;;;;;6205669;28;20188;-62
2023/10/21 04:44:13;;;;;;;8.77;2.73;;;;;;;;;;6206187;28;20229;-61
2023/10/21 04:47:18;;;;;;;8.10;3.57;;;;;;;;;;6233150;28;20191;-60
2023/10/21 04:50:19;;;;;;;6.90;3.40;;;;;;;;;;6222048;28;20198;-61
2023/10/21 04:53:20;;;;;;;4.13;2.57;;;;;;;;;;6221513;28;20236;-61
2023/10/21 04:56:21;;;;;;;3.40;2.30;;;;;;;;;;6214667;28;20214;-61
2023/10/21 04:59:22;;;;;;;3.07;1.97;;;;;;;;;;6210105;28;20242;-62
2023/10/21 05:02:23;;;;;;;9.20;2.20;;;;;;;;;;6203042;28;20188;-61
2023/10/21 05:05:25;;;;;;;4.30;2.50;;;;;;;;;;6206997;28;20201;-62
2023/10/21 05:08:26;;;;;;;5.13;2.33;;;;;;;;;;6228337;28;20195;-62
2023/10/21 05:11:28;;;;;;;4.43;2.07;;;;;;;;;;6208400;28;20194;-62
2023/10/21 05:14:29;;;;;;;4.37;1.97;;;;;;;;;;6210570;28;20222;-61
2023/10/21 05:17:30;;;;;;;2.90;1.70;;;;;;;;;;6208263;28;20270;-62
2023/10/21 05:20:31;;;;;;;6.07;2.20;;;;;;;;;;6210337;28;20197;-62
2023/10/21 05:23:32;;;;;;;5.70;1.87;;;;;;;;;;6209849;28;20293;-62
2023/10/21 05:26:33;;;;;;;2.27;1.77;;;;;;;;;;6209153;28;20243;-62
2023/10/21 05:29:34;;;;;;;4.67;2.63;;;;;;;;;;6210356;28;20248;-61
2023/10/21 05:32:36;;;;;;;3.87;1.77;;;;;;;;;;6205232;28;20205;-61
2023/10/21 05:35:37;;;;;;;5.77;2.10;;;;;;;;;;6206978;28;20226;-61
2023/10/21 05:38:38;;;;;;;4.50;2.13;;;;;;;;;;6221615;28;20194;-60
2023/10/21 05:41:42;;;;;;;5.87;2.53;;;;;;;;;;6215295;28;20217;-60
2023/10/21 05:44:43;;;;;;;3.50;2.20;;;;;;;;;;6206798;28;20204;-60
2023/10/21 05:47:44;;;;;;;3.70;2.30;;;;;;;;;;6212918;28;20203;-62
2023/10/21 05:50:46;;;;;;;2.10;1.83;;;;;;;;;;6208684;28;20253;-61
2023/10/21 05:53:47;;;;;;;4.63;2.23;;;;;;;;;;6202690;28;20316;-61
2023/10/21 05:56:48;;;;;;;2.67;1.70;;;;;;;;;;6228840;28;20196;-61
2023/10/21 05:59:49;;;;;;;3.87;1.73;;;;;;;;;;6208839;28;20192;-60
2023/10/21 06:02:50;;;;;;;3.63;2.00;;;;;;;;;;6201404;28;20282;-61
2023/10/21 06:05:51;;;;;;;4.57;2.50;;;;;;;;;;6222507;28;20192;-60
2023/10/21 06:08:52;;;;;;;3.97;2.13;;;;;;;;;;6211546;28;20208;-60
2023/10/21 06:11:53;;;;;;;3.97;2.83;;;;;;;;;;6210618;28;20195;-61
2023/10/21 06:14:54;;;;;;;4.67;2.53;;;;;;;;;;6208902;28;20215;-60
2023/10/21 06:17:56;;;;;;;2.83;2.57;;;;;;;;;;6198279;28;20198;-60
2023/10/21 06:20:57;;;;;;;5.33;3.13;;;;;;;;;;6209746;28;20187;-60
2023/10/21 06:23:59;;;;;;;10.13;3.07;;;;;;;;;;6195477;28;20225;-60
2023/10/21 06:27:00;;;;;;;4.80;2.77;;;;;;;;;;6206294;28;20333;-60
2023/10/21 06:30:01;;;;;;;5.80;2.77;;;;;;;;;;6211876;28;20255;-60
2023/10/21 06:33:03;;;;;;;4.40;2.80;;;;;;;;;;6211322;28;20251;-60
2023/10/21 06:36:04;;;;;;;4.80;2.60;;;;;;;;;;6217142;28;20194;-60
2023/10/21 06:39:06;;;;;;;7.57;2.97;;;;;;;;;;6211933;28;20192;-61
2023/10/21 06:42:07;;;;;;;6.67;2.63;;;;;;;;;;6206608;28;20231;-60
2023/10/21 06:45:08;;;;;;;5.80;2.73;;;;;;;;;;6211482;28;20187;-60
2023/10/21 06:48:09;;;;;;;3.80;2.67;;;;;;;;;;6209270;28;20213;-60
2023/10/21 06:51:13;;;;;;;4.73;2.70;;;;;;;;;;6210540;28;20190;-60
2023/10/21 06:54:14;;;;;;;4.80;2.80;;;;;;;;;;6220702;28;20276;-60
2023/10/21 06:57:20;;;;;;;4.43;2.80;;;;;;;;;;6197610;28;20191;-61
2023/10/21 07:00:21;;;;;;;6.50;2.27;;;;;;;;;;6208324;28;20179;-60
2023/10/21 07:03:22;;;;;;;7.57;2.80;;;;;;;;;;6206126;28;20213;-61
2023/10/21 07:06:23;;;;;;;5.83;2.90;;;;;;;;;;6194307;28;20187;-61
2023/10/21 07:09:24;;;;;;;4.17;3.10;;;;;;;;;;6219300;28;20246;-61
2023/10/21 07:12:25;;;;;;;7.23;3.53;;;;;;;;;;6215655;28;20190;-60
2023/10/21 07:15:33;;;;;;;5.30;3.37;;;;;;;;;;6209805;28;20249;-59
2023/10/21 07:18:34;;;;;;;19.60;10.87;;;;;;;;;;6228445;28;20191;-59
2023/10/21 07:21:35;;;;;;;18.50;10.57;;;;;;;;;;6206533;28;20194;-59
2023/10/21 07:24:36;;;;;;;16.47;11.90;;;;;;;;;;6216739;28;20198;-60
2023/10/21 07:27:37;;;;;;;20.47;12.97;;;;;;;;;;6211296;28;20201;-59
2023/10/21 07:30:38;;;;;;;14.77;9.87;;;;;;;;;;6208017;28;20199;-59
2023/10/21 07:33:39;;;;;;;13.07;8.90;;;;;;;;;;6204510;28;20249;-60
2023/10/21 07:36:40;;;;;;;10.47;8.00;;;;;;;;;;6218915;28;20190;-60
2023/10/21 07:39:42;;;;;;;10.77;5.80;;;;;;;;;;6211687;28;20240;-61
2023/10/21 07:42:43;;;;;;;6.37;4.80;;;;;;;;;;6207910;28;20201;-60
2023/10/21 07:45:44;;;;;;;5.55;3.95;;;;;;;;;;6208008;28;20110;-59
2023/10/21 07:48:45;;;;;;;5.83;3.90;;;;;;;;;;6210504;28;20207;-59
2023/10/21 07:51:48;;;;;;;4.93;3.33;;;;;;;;;;6205470;28;20199;-62
2023/10/21 07:54:49;;;;;;;3.97;3.53;;;;;;;;;;6204890;28;20219;-61
2023/10/21 07:57:50;;;;;;;5.53;3.47;;;;;;;;;;6205650;28;20194;-62
2023/10/21 08:00:51;;;;;;;4.33;3.60;;;;;;;;;;6225815;28;20179;-62
2023/10/21 08:03:52;;;;;;;5.10;4.17;;;12.10;99.90;;;;;;6220043;28;20207;-63
2023/10/21 08:06:53;;;;;;;5.77;4.30;;;13.90;99.90;;;;;;6206812;28;20203;-61
2023/10/21 08:09:54;;;;;;;6.77;4.00;;;13.90;99.90;;;;;;6191598;28;20197;-61
2023/10/21 08:12:55;;;;;;;8.13;4.37;;;13.90;99.90;;;;;;6188103;28;20228;-61
2023/10/21 08:15:56;;;;;;;6.90;4.00;;;13.90;99.90;;;;;;6216865;28;20236;-59
2023/10/21 08:18:58;;;;;;;6.73;3.30;;;13.90;99.90;;;;;;6209783;28;20180;-60
2023/10/21 08:21:59;;;;;;;6.33;4.23;;;13.90;99.90;;;;;;6187583;28;20193;-61
2023/10/21 08:25:00;;;;;;;4.20;3.20;;;13.90;99.90;;;;;;6197440;28;20235;-61
2023/10/21 08:28:03;;;;;;;3.40;3.10;;;14.00;99.90;;;;;;6213043;28;20195;-61
2023/10/21 08:31:03;;;;;;;5.30;3.50;;;14.00;99.90;;;;;;6187486;28;20294;-62
2023/10/21 08:34:09;;;;;;;3.13;2.83;;;14.10;99.90;;;;;;6194075;28;20221;-63
2023/10/21 08:37:10;;;;;;;7.33;3.23;;;;;;;;;;6197878;28;20199;-60
2023/10/21 08:40:11;;;;;;;17.23;5.70;;;;;;;;;;6207628;28;20192;-62
2023/10/21 08:43:13;;;;;;;4.47;3.07;;;;;;;;;;6201446;28;20196;-61
2023/10/21 08:46:18;;;;;;;4.57;2.90;;;14.20;99.90;;;;;;6230194;28;20198;-60
2023/10/21 08:49:20;;;;;;;4.43;3.37;;;;;;;;;;6213006;28;20254;-60
2023/10/21 08:52:21;;;;;;;7.73;3.90;;;;;;;;;;6200761;28;20209;-60
2023/10/21 08:55:23;;;;;;;4.73;3.13;;;;;;;;;;6212528;28;20218;-63
2023/10/21 08:58:31;;;;;;;6.77;2.90;;;;;;;;;;6232153;28;20220;-62
2023/10/21 09:01:32;;;;;;;3.43;2.50;;;;;;;;;;6206970;28;20210;-60
2023/10/21 09:04:33;;;;;;;3.70;2.87;;;;;;;;;;6211535;28;20198;-61
2023/10/21 09:07:45;;;;;;;4.43;2.93;;;;;;;;;;6207062;28;20210;-61
2023/10/21 09:10:58;;;;;;;3.20;2.90;;;;;;;;;;6224132;28;20257;-61
2023/10/21 09:13:59;;;;;;;2.93;2.70;;;15.60;99.90;;;;;;6220225;28;20299;-60
2023/10/21 09:17:00;;;;;;;4.60;2.63;;;15.30;99.90;;;;;;6212892;28;20198;-60
2023/10/21 09:20:09;;;;;;;3.87;2.50;;;15.40;99.90;;;;;;6195709;28;20186;-61
2023/10/21 09:23:10;;;;;;;2.63;2.43;;;15.40;99.90;;;;;;6217958;28;20192;-60
2023/10/21 09:26:12;;;;;;;2.63;2.43;;;;;;;;;;6184665;28;20257;-60
2023/10/21 09:29:18;;;;;;;3.97;2.70;;;15.40;99.90;;;;;;6208298;28;20202;-61
2023/10/21 09:32:28;;;;;;;5.17;3.03;;;15.60;99.90;;;;;;6223544;28;20194;-61
2023/10/21 09:35:32;;;;;;;3.70;2.43;;;15.60;99.90;;;;;;6228231;28;20210;-60
2023/10/21 09:38:37;;;;;;;6.30;3.30;;;15.60;99.90;;;;;;6189891;28;20227;-60
2023/10/21 09:41:40;;;;;;;6.60;3.50;;;15.70;99.90;;;;;;6211967;28;20194;-60
2023/10/21 09:44:41;;;;;;;5.27;2.87;;;15.80;99.90;;;;;;6223301;28;20287;-60
2023/10/21 09:47:43;;;;;;;4.07;2.70;;;15.80;99.90;;;;;;6200254;28;20196;-60
2023/10/21 09:50:51;;;;;;;3.50;3.07;;;15.80;99.90;;;;;;6186407;28;20203;-60
2023/10/21 09:54:00;;;;;;;3.20;2.90;;;15.80;99.90;;;;;;6213681;28;20210;-60
2023/10/21 09:57:03;;;;;;;3.67;2.83;;;15.80;99.90;;;;;;6227995;28;20193;-60
2023/10/21 10:00:08;;;;;;;4.17;3.10;;;15.80;99.90;;;;;;6214668;28;20198;-61
2023/10/21 10:03:10;;;;;;;3.60;3.27;;;;;;;;;;6213855;28;20187;-60
2023/10/21 10:06:12;;;;;;;3.17;2.87;;;;;;;;;;6217495;28;20198;-61
2023/10/21 10:09:13;;;;;;;4.50;2.67;;;;;;;;;;6206423;28;20261;-61
2023/10/21 10:12:20;;;;;;;3.27;1.93;;;;;;;;;;6204914;28;20191;-60
2023/10/21 10:15:37;;;;;;;3.40;2.03;;;;;;;;;;6213381;28;20208;-61
2023/10/21 10:18:46;;;;;;;3.87;2.13;;;;;;;;;;6226141;28;20291;-62
2023/10/21 10:21:51;;;;;;;1.47;1.37;;;;;;;;;;6225552;28;20188;-60
2023/10/21 10:24:57;;;;;;;3.07;1.27;;;;;;;;;;6210301;28;20242;-60
2023/10/21 10:27:59;;;;;;;1.80;1.33;;;;;;;;;;6211117;28;20230;-60
2023/10/21 10:31:00;;;;;;;4.20;1.63;;;;;;;;;;6227153;28;20196;-60
2023/10/21 10:34:01;;;;;;;2.70;1.53;;;;;;;;;;6194546;28;20226;-60
2023/10/21 10:37:03;;;;;;;4.83;1.50;;;;;;;;;;6213701;28;20248;-60
2023/10/21 10:40:21;;;;;;;3.00;1.60;;;;;;;;;;6203771;28;20203;-60
2023/10/21 10:43:22;;;;;;;2.43;1.37;;;;;;;;;;6226009;28;20187;-61
2023/10/21 10:46:24;;;;;;;1.90;1.20;;;;;;;;;;6224259;28;20190;-61
2023/10/21 10:49:25;;;;;;;5.10;1.33;;;;;;;;;;6204853;28;20276;-61
2023/10/21 10:52:33;;;;;;;1.63;1.47;;;;;;;;;;6207729;28;20196;-61
2023/10/21 10:55:34;;;;;;;1.53;1.20;;;;;;;;;;6206482;28;20284;-61
2023/10/21 10:58:35;;;;;;;2.17;1.47;;;;;;;;;;6199692;28;20201;-60
2023/10/21 11:01:36;;;;;;;1.97;1.20;;;;;;;;;;6206171;28;20199;-61
2023/10/21 11:04:37;;;;;;;3.20;1.00;;;;;;;;;;6198404;28;20213;-61
2023/10/21 11:07:38;;;;;;;3.03;1.30;;;;;;;;;;6208245;28;20213;-61
2023/10/21 11:10:39;;;;;;;4.23;1.10;;;;;;;;;;6204031;28;20342;-62
2023/10/21 11:13:42;;;;;;;3.27;1.50;;;;;;;;;;6202476;28;20243;-61
2023/10/21 11:16:44;;;;;;;2.33;1.50;;;;;;;;;;6218239;28;20187;-63
2023/10/21 11:19:45;;;;;;;2.50;1.67;;;;;;;;;;6216650;28;20221;-63
2023/10/21 11:22:46;;;;;;;2.00;1.37;;;;;;;;;;6203782;28;20277;-60
2023/10/21 11:25:48;;;;;;;2.97;1.43;;;;;;;;;;6203905;28;20250;-61
2023/10/21 11:28:50;;;;;;;3.83;1.73;;;;;;;;;;6224553;28;20219;-61
2023/10/21 11:31:51;;;;;;;2.60;1.47;;;;;;;;;;6206365;28;20199;-61
2023/10/21 11:34:52;;;;;;;2.40;1.40;;;;;;;;;;6203035;28;20221;-61
2023/10/21 11:37:56;;;;;;;1.30;1.20;;;;;;;;;;6221361;28;20190;-61
2023/10/21 11:40:59;;;;;;;4.73;1.53;;;;;;;;;;6194763;28;20190;-61
2023/10/21 11:44:04;;;;;;;1.90;1.20;;;;;;;;;;6222330;28;20313;-61
2023/10/21 11:47:07;;;;;;;2.40;1.57;;;;;;;;;;6225295;28;20198;-61
2023/10/21 11:50:09;;;;;;;2.00;1.20;;;;;;;;;;6226988;28;20191;-61
2023/10/21 11:53:12;;;;;;;2.87;1.47;;;;;;;;;;6206007;28;20199;-61
2023/10/21 12:41:15;;;;;;;3.60;1.70;;;;;;;;;;6220605;28;20200;-61
2023/10/21 12:44:14;;;;;;;2.57;1.23;;;;;;;;;;6243737;28;20191;-61
2023/10/21 12:47:16;;;;;;;3.33;1.30;;;;;;;;;;6204508;28;20229;-61
2023/10/21 12:50:17;;;;;;;1.73;1.33;;;;;;;;;;6210010;28;20188;-61
2023/10/21 12:53:19;;;;;;;2.83;1.50;;;;;;;;;;6218022;28;20263;-61
2023/10/21 12:56:20;;;;;;;1.87;1.50;;;;;;;;;;6227322;28;20218;-61
2023/10/21 12:59:22;;;;;;;2.43;1.50;;;;;;;;;;6218473;28;20198;-60
2023/10/21 13:02:23;;;;;;;2.27;1.57;;;;;;;;;;6208312;28;20205;-61
2023/10/21 13:05:24;;;;;;;2.80;1.57;;;;;;;;;;6198708;28;20178;-61
2023/10/21 13:08:25;;;;;;;2.30;1.60;;;;;;;;;;6208016;28;20220;-61
2023/10/21 13:11:27;;;;;;;2.73;1.20;;;;;;;;;;6209443;28;20194;-61
2023/10/21 13:14:29;;;;;;;4.47;1.60;;;;;;;;;;6231315;28;20207;-61
2023/10/21 13:17:30;;;;;;;2.37;1.40;;;;;;;;;;6214666;28;20182;-61
2023/10/21 13:20:31;;;;;;;3.57;1.70;;;;;;;;;;6214509;28;20313;-60
2023/10/21 13:23:32;;;;;;;2.43;1.97;;;;;;;;;;6208047;28;20183;-61
2023/10/21 13:26:33;;;;;;;2.10;1.70;;;;;;;;;;6198559;28;20249;-61
2023/10/21 13:29:36;;;;;;;2.63;1.60;;;;;;;;;;6221453;28;20277;-61
2023/10/21 13:32:55;;;;;;;2.07;1.80;;;;;;;;;;6208091;28;20202;-61
2023/10/21 13:35:56;;;;;;;4.10;2.07;;;;;;;;;;6217987;28;20221;-61
2023/10/21 13:38:57;;;;;;;3.53;1.93;;;;;;;;;;6215200;28;20249;-60
2023/10/21 13:41:59;;;;;;;3.17;1.70;;;;;;;;;;6211190;28;20193;-60
2023/10/21 13:45:05;;;;;;;2.53;1.67;;;;;;;;;;6213023;28;20199;-61
2023/10/21 13:48:11;;;;;;;4.53;2.00;;;;;;;;;;6212463;28;20194;-60
2023/10/21 13:51:12;;;;;;;2.67;1.50;;;;;;;;;;6208592;28;20188;-60
2023/10/21 13:54:13;;;;;;;2.93;1.57;;;;;;;;;;6203815;28;20295;-60
2023/10/21 13:57:15;;;;;;;3.57;1.53;;;;;;;;;;6224866;28;20190;-60
2023/10/21 14:00:35;;;;;;;2.40;1.60;;;;;;;;;;6207859;28;20184;-60
2023/10/21 14:03:37;;;;;;;3.50;1.50;;;;;;;;;;6224523;28;20187;-60
2023/10/21 14:06:39;;;;;;;3.37;1.43;;;;;;;;;;6206913;28;20191;-60
2023/10/21 14:09:42;;;;;;;2.93;1.70;;;;;;;;;;6227796;28;20188;-61
2023/10/21 14:12:43;;;;;;;2.20;1.43;;;;;;;;;;6206543;28;20191;-60
2023/10/21 14:15:45;;;;;;;2.03;1.27;;;;;;;;;;6214456;28;20229;-60
2023/10/21 14:18:46;;;;;;;3.93;1.60;;;;;;;;;;6228211;28;20193;-60
2023/10/21 14:21:47;;;;;;;4.70;1.90;;;;;;;;;;6207114;28;20258;-61
2023/10/21 14:24:48;;;;;;;3.73;2.00;;;;;;;;;;6207220;28;20260;-60
2023/10/21 14:27:49;;;;;;;2.03;1.73;;;;;;;;;;6212752;28;20217;-60
2023/10/21 14:30:52;;;;;;;3.90;2.33;;;;;;;;;;6200387;28;20191;-60
2023/10/21 14:33:55;;;;;;;3.23;2.40;;;;;;;;;;6230994;28;20212;-61
2023/10/21 14:36:58;;;;;;;4.80;2.70;;;;;;;;;;6219772;28;20195;-60
2023/10/21 14:39:59;;;;;;;4.37;2.77;;;;;;;;;;6231309;28;20195;-61
2023/10/21 14:43:01;;;;;;;3.80;2.10;;;;;;;;;;6208253;28;20194;-60
2023/10/21 14:46:04;;;;;;;3.93;2.00;;;;;;;;;;6225663;28;20252;-60
2023/10/21 14:49:07;;;;;;;2.63;2.13;;;;;;;;;;6210183;28;20197;-61
2023/10/21 14:52:08;;;;;;;5.00;2.77;;;;;;;;;;6209338;28;20186;-60
2023/10/21 14:55:09;;;;;;;3.90;2.40;;;;;;;;;;6206602;28;20207;-61
2023/10/21 14:58:11;;;;;;;2.83;2.63;;;;;;;;;;6230532;28;20187;-60
2023/10/21 15:01:12;;;;;;;3.00;2.70;;;;;;;;;;6230214;28;20191;-60
2023/10/21 15:04:13;;;;;;;2.83;2.57;;;;;;;;;;6214054;28;20191;-60
2023/10/21 15:07:14;;;;;;;2.80;2.50;;;;;;;;;;6220263;28;20191;-61
2023/10/21 15:10:16;;;;;;;3.70;2.60;;;;;;;;;;6219456;28;20193;-60
2023/10/21 15:13:18;;;;;;;3.37;2.20;;;;;;;;;;6206487;28;20218;-61
2023/10/21 15:16:19;;;;;;;5.20;2.43;;;;;;;;;;6218324;28;20261;-61
2023/10/21 15:19:21;;;;;;;2.40;1.77;;;;;;;;;;6218414;28;20239;-61
2023/10/21 15:22:22;;;;;;;2.60;2.40;;;;;;;;;;6204585;28;20188;-60
2023/10/21 15:25:23;;;;;;;2.13;1.93;;;;;;;;;;6208527;28;20236;-60
2023/10/21 15:28:24;;;;;;;3.43;2.67;;;;;;;;;;6214729;28;20198;-60
2023/10/21 15:31:25;;;;;;;2.93;2.63;;;;;;;;;;6203248;28;20198;-61
2023/10/21 15:34:26;;;;;;;3.83;2.90;;;;;;;;;;6204850;28;20209;-60
2023/10/21 15:37:27;;;;;;;3.03;2.80;;;;;;;;;;6202536;28;20201;-61
2023/10/21 15:40:30;;;;;;;3.30;2.70;;;;;;;;;;6199090;28;20283;-60
2023/10/21 15:43:31;;;;;;;3.30;3.00;;;;;;;;;;6204252;28;20207;-60
2023/10/21 15:46:32;;;;;;;5.07;3.77;;;;;;;;;;6200958;28;20187;-60
2023/10/21 15:49:34;;;;;;;8.47;4.03;;;;;;;;;;6205880;28;20191;-60
2023/10/21 15:52:36;;;;;;;6.97;4.80;;;;;;;;;;6208257;28;20206;-61
2023/10/21 15:55:38;;;;;;;7.10;5.13;;;;;;;;;;6219000;28;20215;-61
2023/10/21 15:58:39;;;;;;;8.33;5.67;;;;;;;;;;6214754;28;20198;-61
2023/10/21 16:01:40;;;;;;;6.23;5.07;;;;;;;;;;6197580;28;20248;-61
2023/10/21 16:04:41;;;;;;;7.73;4.27;;;;;;;;;;6202642;28;20226;-61
2023/10/21 16:07:43;;;;;;;9.40;4.83;;;;;;;;;;6229538;28;20233;-61
2023/10/21 16:10:44;;;;;;;6.23;3.87;;;;;;;;;;6191980;28;20195;-61
2023/10/21 16:13:45;;;;;;;8.27;4.23;;;;;;;;;;6200695;28;20203;-60
2023/10/21 16:16:46;;;;;;;9.07;4.57;;;;;;;;;;6203650;28;20198;-61
2023/10/21 16:19:48;;;;;;;6.40;4.53;;;;;;;;;;6207855;28;20205;-61
2023/10/21 16:22:49;;;;;;;7.87;4.37;;;;;;;;;;6205879;28;20195;-61
2023/10/21 16:25:50;;;;;;;8.90;4.37;;;;;;;;;;6207101;28;20246;-61
2023/10/21 16:28:52;;;;;;;5.07;4.10;;;;;;;;;;6226883;28;20291;-61
2023/10/21 16:31:53;;;;;;;6.63;4.10;;;;;;;;;;6227551;28;20198;-61
2023/10/21 16:34:54;;;;;;;8.50;4.10;;;;;;;;;;6200770;28;20215;-62
2023/10/21 16:37:58;;;;;;;5.63;3.93;;;;;;;;;;6204676;28;20205;-62
2023/10/21 16:40:59;;;;;;;8.27;4.37;;;;;;;;;;6205611;28;20256;-62
2023/10/21 16:44:01;;;;;;;12.53;4.80;;;;;;;;;;6213612;28;20248;-62
2023/10/21 16:47:02;;;;;;;5.60;4.03;;;;;;;;;;6217702;28;20195;-62
2023/10/21 16:50:04;;;;;;;8.53;4.67;;;;;;;;;;6203603;28;20275;-62
2023/10/21 16:53:05;;;;;;;8.07;5.37;;;;;;;;;;6209559;28;20203;-62
2023/10/21 16:56:09;;;;;;;8.57;5.13;;;;;;;;;;6208248;28;20220;-61
2023/10/21 16:59:11;;;;;;;8.50;4.43;;;;;;;;;;6205742;28;20184;-62
2023/10/21 17:02:12;;;;;;;6.60;3.63;;;;;;;;;;6231241;28;20187;-62
2023/10/21 17:05:14;;;;;;;8.43;3.47;;;;;;;;;;6206464;28;20206;-62
2023/10/21 17:08:15;;;;;;;4.77;3.33;;;;;;;;;;6207477;28;20199;-62
2023/10/21 17:11:16;;;;;;;8.40;3.77;;;;;;;;;;6215065;28;20210;-62
2023/10/21 17:14:17;;;;;;;4.40;3.20;;;;;;;;;;6216119;28;20218;-64
2023/10/21 17:17:19;;;;;;;7.23;3.80;;;;;;;;;;6210385;28;20199;-60
2023/10/21 17:20:20;;;;;;;7.30;4.40;;;;;;;;;;6215264;28;20191;-59
2023/10/21 17:23:22;;;;;;;7.53;4.03;;;;;;;;;;6213420;28;20210;-60
2023/10/21 17:26:23;;;;;;;9.17;4.60;;;;;;;;;;6214476;28;20242;-59
2023/10/21 17:29:25;;;;;;;7.60;5.50;;;;;;;;;;6217891;28;20194;-58
2023/10/21 17:32:26;;;;;;;14.87;7.73;;;;;;;;;;6208918;28;20287;-60
2023/10/21 17:35:28;;;;;;;14.63;7.87;;;;;;;;;;6215565;28;20221;-60
2023/10/21 17:38:30;;;;;;;8.83;5.27;;;;;;;;;;6215158;28;20290;-60
2023/10/21 17:41:32;;;;;;;11.50;9.40;;;;;;;;;;6217516;28;20290;-61
2023/10/21 17:44:34;;;;;;;17.50;10.93;;;;;;;;;;6212819;28;20329;-61
2023/10/21 17:47:37;;;;;;;12.33;8.70;;;;;;;;;;6213372;28;20205;-62
2023/10/21 17:50:39;;;;;;;15.87;8.90;;;;;;;;;;6221873;28;20198;-61
2023/10/21 17:53:40;;;;;;;16.57;8.97;;;;;;;;;;6231852;28;20199;-62
2023/10/21 17:56:42;;;;;;;20.73;10.03;;;;;;;;;;6215347;28;20217;-62
2023/10/21 17:59:44;;;;;;;16.93;8.80;;;;;;;;;;6233625;28;20197;-61
2023/10/21 18:02:45;;;;;;;16.63;8.40;;;;;;;;;;6210726;28;20196;-61